Salina, Kansas
Current Conditions -  °F | °C
As of 5:19 AM on Sunday 23 Nov 2014 (Local Time) from KSLN Reporting Station
Overcast Overcast  
Wind Chill: 12°   Ceiling: 1900
Heat Index: 12°   Visibility: 10mi
Dew Point: 10°   Wind: 5mph
Humidity: 86%   Direction: 170°S
Pressure: 29.47"   Gusts: NA
Location:  38.84°N, 97.61°W
Report Text: KSLN 231119Z AUTO 17004KT 10SM SCT013 OVC019 12/10 A2947 RMK AO2 T01220100
Loading
Personal Weather Stations






























Interactive Weather Map New forecast layout! Learn more

10-Day Weather Forecast

Advertisements
Track Severe Weather on mobile